createdAt,value
2023-12-27T00:01:16.832Z,38.77
2023-12-27T00:03:43.203Z,39.25
2023-12-27T00:06:09.653Z,39.75
2023-12-27T00:08:35.980Z,40.24
2023-12-27T00:11:02.269Z,41.14
2023-12-27T00:13:28.541Z,39.31
2023-12-27T00:15:54.832Z,39.38
2023-12-27T00:18:21.212Z,39.38
2023-12-27T00:20:47.555Z,39.68
2023-12-27T00:23:13.854Z,39.31
2023-12-27T00:25:40.129Z,39.21
2023-12-27T00:28:06.418Z,38.99
2023-12-27T00:30:32.821Z,39.68
2023-12-27T00:32:59.352Z,40.15
2023-12-27T00:35:25.687Z,40.39
2023-12-27T00:37:51.972Z,40.07
2023-12-27T00:40:18.261Z,39.27
2023-12-27T00:42:44.575Z,37.66
2023-12-27T00:45:10.924Z,37.71
2023-12-27T00:47:37.238Z,37.71
2023-12-27T00:50:03.587Z,37.92
2023-12-27T00:52:29.891Z,37.34
2023-12-27T00:54:56.185Z,36.94
2023-12-27T00:57:22.521Z,36.65
2023-12-27T00:59:48.859Z,36.74
2023-12-27T01:02:15.126Z,36.26
2023-12-27T01:04:41.498Z,36.80
2023-12-27T01:07:07.835Z,38.37
2023-12-27T01:09:34.214Z,38.52
2023-12-27T01:12:00.616Z,39.44
2023-12-27T01:14:26.897Z,39.77
2023-12-27T01:16:53.172Z,37.28
2023-12-27T01:19:19.615Z,36.38
2023-12-27T01:21:45.932Z,36.59
2023-12-27T01:24:12.281Z,38.66
2023-12-27T01:26:38.575Z,38.98
2023-12-27T01:29:04.886Z,38.11
2023-12-27T01:31:31.187Z,38.11
2023-12-27T01:34:04.784Z,36.01
2023-12-27T01:36:38.547Z,36.86
2023-12-27T01:39:04.921Z,36.31
2023-12-27T01:41:31.236Z,36.82
2023-12-27T01:43:57.518Z,37.69
2023-12-27T01:46:23.804Z,36.11
2023-12-27T01:48:50.290Z,36.18
2023-12-27T01:51:16.622Z,35.17
2023-12-27T01:53:42.939Z,34.96
2023-12-27T01:56:09.220Z,35.15
2023-12-27T01:58:35.525Z,35.20
2023-12-27T02:01:01.944Z,35.32
2023-12-27T02:03:28.350Z,36.39
2023-12-27T02:05:54.728Z,36.72
2023-12-27T02:08:21.073Z,37.24
2023-12-27T02:10:47.385Z,37.38
2023-12-27T02:13:13.685Z,38.99
2023-12-27T02:15:40.165Z,38.64
2023-12-27T02:18:06.818Z,40.34
2023-12-27T02:20:33.342Z,38.98
2023-12-27T02:22:59.641Z,39.11
2023-12-27T02:25:25.972Z,38.79
2023-12-27T02:27:52.293Z,37.54
2023-12-27T02:30:18.745Z,37.52
2023-12-27T02:32:45.304Z,38.30
2023-12-27T02:35:11.746Z,38.98
2023-12-27T02:40:26.827Z,38.12
2023-12-27T02:42:53.142Z,37.13
2023-12-27T02:45:19.518Z,37.98
2023-12-27T02:47:45.859Z,37.47
2023-12-27T02:50:12.154Z,36.77
2023-12-27T02:52:38.453Z,35.84
2023-12-27T02:55:04.755Z,36.04
2023-12-27T02:57:31.053Z,36.45
2023-12-27T02:59:57.447Z,36.16
2023-12-27T03:02:23.816Z,37.21
2023-12-27T03:04:50.254Z,37.81
2023-12-27T03:07:16.622Z,38.81
2023-12-27T03:09:42.915Z,39.19
2023-12-27T03:12:09.216Z,39.73
2023-12-27T03:14:35.516Z,39.35
2023-12-27T03:17:01.817Z,38.49
2023-12-27T03:19:28.217Z,36.99
2023-12-27T03:21:54.521Z,37.41
2023-12-27T03:24:20.861Z,37.38
2023-12-27T03:26:47.196Z,36.14
2023-12-27T03:29:13.513Z,35.94
2023-12-27T03:31:39.879Z,36.00
2023-12-27T03:34:06.256Z,34.76
2023-12-27T03:36:32.632Z,35.69
2023-12-27T03:38:59.018Z,36.63
2023-12-27T03:41:25.310Z,35.89
2023-12-27T03:43:51.603Z,36.44
2023-12-27T03:46:17.892Z,36.84
2023-12-27T03:48:44.247Z,37.53
2023-12-27T03:51:10.652Z,38.00
2023-12-27T03:53:36.961Z,38.58
2023-12-27T03:56:03.254Z,38.33
2023-12-27T03:58:29.558Z,38.54
2023-12-27T04:00:55.867Z,38.61
2023-12-27T04:03:22.177Z,38.34
2023-12-27T04:05:48.593Z,37.43
2023-12-27T04:08:14.935Z,37.10
2023-12-27T04:10:41.233Z,36.83
2023-12-27T04:13:27.496Z,36.98
2023-12-27T04:16:03.917Z,36.57
2023-12-27T04:18:30.313Z,36.58
2023-12-27T04:20:56.705Z,36.75
2023-12-27T04:23:23.073Z,36.51
2023-12-27T04:25:49.357Z,36.08
2023-12-27T04:28:15.657Z,35.92
2023-12-27T04:30:42.011Z,36.32
2023-12-27T04:33:08.475Z,36.33
2023-12-27T04:35:34.842Z,36.34
2023-12-27T04:38:01.121Z,36.53
2023-12-27T04:40:27.406Z,36.66
2023-12-27T04:42:53.697Z,37.88
2023-12-27T04:45:20.045Z,38.10
2023-12-27T04:47:46.403Z,38.08
2023-12-27T04:50:12.906Z,39.25
2023-12-27T04:52:39.253Z,39.24
2023-12-27T04:55:05.542Z,38.75
2023-12-27T04:57:31.860Z,39.41
2023-12-27T04:59:58.184Z,39.89
2023-12-27T05:02:24.492Z,40.64
2023-12-27T05:04:50.783Z,39.73
2023-12-27T05:07:17.068Z,39.15
2023-12-27T05:09:43.353Z,37.37
2023-12-27T05:12:09.647Z,37.90
2023-12-27T05:14:35.938Z,37.75
2023-12-27T05:17:02.213Z,36.95
2023-12-27T05:19:28.628Z,36.43
2023-12-27T05:21:54.982Z,36.75
2023-12-27T05:24:21.360Z,36.52
2023-12-27T05:26:47.689Z,37.60
2023-12-27T05:29:14.070Z,38.20
2023-12-27T05:31:40.429Z,38.87
2023-12-27T05:34:06.881Z,38.25
2023-12-27T05:36:33.316Z,35.69
2023-12-27T05:38:59.653Z,35.10
2023-12-27T05:41:25.958Z,35.93
2023-12-27T05:43:52.255Z,34.23
2023-12-27T05:46:18.560Z,35.28
2023-12-27T05:48:44.912Z,36.32
2023-12-27T05:51:11.278Z,38.06
2023-12-27T05:53:37.586Z,38.37
2023-12-27T05:56:03.882Z,38.21
2023-12-27T05:58:31.160Z,38.04
2023-12-27T06:00:58.295Z,38.00
2023-12-27T06:03:24.982Z,37.50
2023-12-27T06:05:51.363Z,36.04
2023-12-27T06:08:17.649Z,36.25
2023-12-27T06:10:43.928Z,35.58
2023-12-27T06:13:10.221Z,35.90
2023-12-27T06:15:36.512Z,36.65
2023-12-27T06:18:03.086Z,36.95
2023-12-27T06:20:29.721Z,37.68
2023-12-27T06:22:56.003Z,38.24
2023-12-27T06:25:22.277Z,38.54
2023-12-27T06:27:48.652Z,38.02
2023-12-27T06:30:14.984Z,37.59
2023-12-27T06:32:41.376Z,37.73
2023-12-27T06:35:07.758Z,36.75
2023-12-27T06:37:34.579Z,36.25
2023-12-27T06:40:01.462Z,36.52
2023-12-27T06:42:27.806Z,36.28
2023-12-27T06:44:54.114Z,35.94
2023-12-27T06:47:20.419Z,36.60
2023-12-27T06:49:46.845Z,36.89
2023-12-27T06:52:13.275Z,36.87
2023-12-27T06:54:39.651Z,36.18
2023-12-27T06:57:05.974Z,35.81
2023-12-27T06:59:32.275Z,35.64
2023-12-27T07:01:58.567Z,35.56
2023-12-27T07:04:24.849Z,35.42
2023-12-27T07:06:51.139Z,36.58
2023-12-27T07:09:17.524Z,37.96
2023-12-27T07:11:43.869Z,38.65
2023-12-27T07:14:10.133Z,37.64
2023-12-27T07:16:36.422Z,35.68
2023-12-27T07:19:02.843Z,35.56
2023-12-27T07:21:29.251Z,35.55
2023-12-27T07:23:55.568Z,36.02
2023-12-27T07:26:21.836Z,36.92
2023-12-27T07:28:48.131Z,37.53
2023-12-27T07:31:14.631Z,37.73
2023-12-27T07:33:41.143Z,36.58
2023-12-27T07:36:07.510Z,36.72
2023-12-27T07:38:33.823Z,36.75
2023-12-27T07:41:00.106Z,37.50
2023-12-27T07:43:26.405Z,37.52
2023-12-27T07:45:52.708Z,37.21
2023-12-27T07:48:19.064Z,37.10
2023-12-27T07:50:45.410Z,37.24
2023-12-27T07:53:11.712Z,37.26
2023-12-27T07:55:38.023Z,36.89
2023-12-27T07:58:04.303Z,36.45
2023-12-27T08:00:30.742Z,35.56
2023-12-27T08:02:57.071Z,35.08
2023-12-27T08:05:23.392Z,36.69
2023-12-27T08:07:49.730Z,36.10
2023-12-27T08:10:16.017Z,36.56
2023-12-27T08:12:44.453Z,36.11
2023-12-27T08:15:11.141Z,36.55
2023-12-27T08:17:37.457Z,37.34
2023-12-27T08:20:03.783Z,38.51
2023-12-27T08:22:30.060Z,36.70
2023-12-27T08:24:56.400Z,37.85
2023-12-27T08:27:22.687Z,38.10
2023-12-27T08:29:49.009Z,39.30
2023-12-27T08:32:15.295Z,38.40
2023-12-27T08:34:41.678Z,39.10
2023-12-27T08:37:07.983Z,39.08
2023-12-27T08:39:34.299Z,37.22
2023-12-27T08:42:00.683Z,36.87
2023-12-27T08:44:26.971Z,36.20
2023-12-27T08:46:53.271Z,37.20
2023-12-27T08:49:19.664Z,38.60
2023-12-27T08:51:46.060Z,37.38
2023-12-27T08:54:12.428Z,36.58
2023-12-27T08:56:38.785Z,35.81
2023-12-27T08:59:05.090Z,36.25
2023-12-27T09:01:31.395Z,37.76
2023-12-27T09:03:57.764Z,36.73
2023-12-27T09:06:24.208Z,36.68
2023-12-27T09:08:50.617Z,34.89
2023-12-27T09:11:16.970Z,35.81
2023-12-27T09:14:03.196Z,35.66
2023-12-27T09:16:29.478Z,37.29
2023-12-27T09:18:55.896Z,38.43
2023-12-27T09:21:22.273Z,37.44
2023-12-27T09:23:48.588Z,37.39
2023-12-27T09:26:14.872Z,36.01
2023-12-27T09:28:41.170Z,34.40
2023-12-27T09:31:07.592Z,34.13
2023-12-27T09:33:34.090Z,35.12
2023-12-27T09:36:00.535Z,34.45
2023-12-27T09:38:26.887Z,33.91
2023-12-27T09:40:53.174Z,36.49
2023-12-27T09:43:19.454Z,36.14
2023-12-27T09:45:45.767Z,36.16
2023-12-27T09:48:12.211Z,37.34
2023-12-27T09:50:38.710Z,38.38
2023-12-27T09:53:05.049Z,37.49
2023-12-27T09:55:31.345Z,39.17
2023-12-27T09:57:57.925Z,37.95
2023-12-27T10:00:24.437Z,36.45
2023-12-27T10:02:50.862Z,37.50
2023-12-27T10:05:17.351Z,34.42
2023-12-27T10:07:43.716Z,37.50
2023-12-27T10:10:20.312Z,38.41
2023-12-27T10:12:51.153Z,38.91
2023-12-27T10:15:17.456Z,38.56
2023-12-27T10:17:43.823Z,38.83
2023-12-27T10:20:10.113Z,38.36
2023-12-27T10:22:36.416Z,38.22
2023-12-27T10:25:02.697Z,38.10
2023-12-27T10:27:29.039Z,36.99
2023-12-27T10:29:55.326Z,37.52
2023-12-27T10:32:21.627Z,37.32
2023-12-27T10:34:48.288Z,36.95
2023-12-27T10:37:14.769Z,37.30
2023-12-27T10:39:41.088Z,36.50
2023-12-27T10:42:07.426Z,35.60
2023-12-27T10:44:33.700Z,35.71
2023-12-27T10:46:59.969Z,37.26
2023-12-27T10:49:26.411Z,36.93
2023-12-27T10:51:52.744Z,37.85
2023-12-27T10:54:19.080Z,37.92
2023-12-27T10:56:45.451Z,37.14
2023-12-27T10:59:11.855Z,35.94
2023-12-27T11:01:38.208Z,38.02
2023-12-27T11:04:04.656Z,37.29
2023-12-27T11:06:31.065Z,37.37
2023-12-27T11:08:57.395Z,35.54
2023-12-27T11:11:23.680Z,36.39
2023-12-27T11:13:50.021Z,36.71
2023-12-27T11:16:16.364Z,35.94
2023-12-27T11:18:42.807Z,35.50
2023-12-27T11:21:09.152Z,36.98
2023-12-27T11:23:35.447Z,37.19
2023-12-27T11:26:01.835Z,36.02
2023-12-27T11:28:28.180Z,35.78
2023-12-27T11:30:54.529Z,36.09
2023-12-27T11:33:20.986Z,35.07
2023-12-27T11:35:47.414Z,36.30
2023-12-27T11:38:13.710Z,38.28
2023-12-27T11:40:40.070Z,37.74
2023-12-27T11:43:06.416Z,37.34
2023-12-27T11:45:32.753Z,38.01
2023-12-27T11:47:59.297Z,37.77
2023-12-27T11:50:25.715Z,36.39
2023-12-27T11:52:59.364Z,36.30
2023-12-27T11:55:30.131Z,27.43
2023-12-27T11:57:56.660Z,28.15
2023-12-27T12:00:23.197Z,29.83
2023-12-27T12:02:50.121Z,27.54
2023-12-27T12:05:17.105Z,30.36
2023-12-27T12:07:43.421Z,33.31
2023-12-27T12:10:09.713Z,31.72
2023-12-27T12:12:36.031Z,30.74
2023-12-27T12:15:02.350Z,32.56
2023-12-27T12:17:28.968Z,34.08
2023-12-27T12:19:55.443Z,33.24
2023-12-27T12:22:21.815Z,32.45
2023-12-27T12:24:48.315Z,35.49
2023-12-27T12:27:14.776Z,33.92
2023-12-27T12:29:41.159Z,34.88
2023-12-27T12:32:07.509Z,36.01
2023-12-27T12:34:33.892Z,34.58
2023-12-27T12:37:00.275Z,36.64
2023-12-27T12:39:26.592Z,32.09
2023-12-27T12:41:52.883Z,27.37
2023-12-27T12:44:19.176Z,28.28
2023-12-27T12:46:45.463Z,33.96
2023-12-27T12:49:11.890Z,35.70
2023-12-27T12:51:38.362Z,35.33
2023-12-27T12:54:04.723Z,36.00
2023-12-27T12:56:31.074Z,34.17
2023-12-27T12:58:57.347Z,31.50
2023-12-27T13:01:23.708Z,30.94
2023-12-27T13:03:50.230Z,32.28
2023-12-27T13:06:16.624Z,36.27
2023-12-27T13:08:42.943Z,35.60
2023-12-27T13:11:09.571Z,36.17
2023-12-27T13:13:35.897Z,34.58
2023-12-27T13:16:02.183Z,34.11
2023-12-27T13:18:28.656Z,32.47
2023-12-27T13:20:55.011Z,34.32
2023-12-27T13:23:21.299Z,35.59
2023-12-27T13:25:47.609Z,34.32
2023-12-27T13:28:14.264Z,33.52
2023-12-27T13:30:40.964Z,32.22
2023-12-27T13:33:07.711Z,32.51
2023-12-27T13:35:34.173Z,34.01
2023-12-27T13:38:00.619Z,35.95
2023-12-27T13:40:27.108Z,38.66
2023-12-27T13:42:56.952Z,36.15
2023-12-27T13:45:23.784Z,33.04
2023-12-27T13:47:50.170Z,31.62
2023-12-27T13:50:16.583Z,31.42
2023-12-27T13:52:42.851Z,30.67
2023-12-27T13:55:09.164Z,30.06
2023-12-27T13:57:35.639Z,29.39
2023-12-27T14:00:02.079Z,29.25
2023-12-27T14:02:28.437Z,29.74
2023-12-27T14:04:54.769Z,29.04
2023-12-27T14:07:21.064Z,30.12
2023-12-27T14:09:47.570Z,30.44
2023-12-27T14:12:14.112Z,30.03
2023-12-27T14:14:40.408Z,30.90
2023-12-27T14:17:06.751Z,32.00
2023-12-27T14:19:33.163Z,33.07
2023-12-27T14:21:59.516Z,32.50
2023-12-27T14:24:25.840Z,32.68
2023-12-27T14:26:52.135Z,34.21
2023-12-27T14:29:18.427Z,33.73
2023-12-27T14:31:44.801Z,32.39
2023-12-27T14:34:11.265Z,31.90
2023-12-27T14:36:37.637Z,31.98
2023-12-27T14:39:03.963Z,30.49
2023-12-27T14:41:30.259Z,28.13
2023-12-27T14:43:56.543Z,27.35
2023-12-27T14:46:22.826Z,30.13
2023-12-27T14:48:49.181Z,28.94
2023-12-27T14:51:16.879Z,28.47
2023-12-27T14:53:43.371Z,28.94
2023-12-27T14:56:09.647Z,27.92
2023-12-27T14:58:35.920Z,27.61
2023-12-27T15:01:02.357Z,28.67
2023-12-27T15:03:28.741Z,29.16
2023-12-27T15:05:55.177Z,30.96
2023-12-27T15:08:21.497Z,31.44
2023-12-27T15:10:47.810Z,31.82
2023-12-27T15:13:14.099Z,31.92
2023-12-27T15:15:40.418Z,31.82
2023-12-27T15:18:06.913Z,31.68
2023-12-27T15:20:33.276Z,31.81
2023-12-27T15:22:59.575Z,30.80
2023-12-27T15:25:25.871Z,31.00
2023-12-27T15:27:52.261Z,31.04
2023-12-27T15:30:18.664Z,31.13
2023-12-27T15:32:45.156Z,30.58
2023-12-27T15:35:11.527Z,30.08
2023-12-27T15:37:37.824Z,28.92
2023-12-27T15:40:04.126Z,29.17
2023-12-27T15:42:30.437Z,30.73
2023-12-27T15:44:57.078Z,29.96
2023-12-27T15:47:23.400Z,30.48
2023-12-27T15:49:49.837Z,31.55
2023-12-27T15:52:16.178Z,31.57
2023-12-27T15:54:42.534Z,29.52
2023-12-27T15:57:08.903Z,28.87
2023-12-27T15:59:35.187Z,31.50
2023-12-27T16:02:01.474Z,32.26
2023-12-27T16:04:27.913Z,31.64
2023-12-27T16:06:54.330Z,31.83
2023-12-27T16:09:20.666Z,32.68
2023-12-27T16:11:53.006Z,32.95
2023-12-27T16:14:19.305Z,30.95
2023-12-27T16:16:45.603Z,31.21
2023-12-27T16:19:12.111Z,32.39
2023-12-27T16:21:38.920Z,33.99
2023-12-27T16:24:05.449Z,33.07
2023-12-27T16:26:31.829Z,32.39
2023-12-27T16:28:58.189Z,32.94
2023-12-27T16:31:24.599Z,31.34
2023-12-27T16:33:50.992Z,31.45
2023-12-27T16:36:17.368Z,32.71
2023-12-27T16:38:43.686Z,31.72
2023-12-27T16:41:09.975Z,33.50
2023-12-27T16:43:36.817Z,34.44
2023-12-27T16:46:03.705Z,34.54
2023-12-27T16:48:30.143Z,34.61
2023-12-27T16:50:56.453Z,34.61
2023-12-27T16:53:22.747Z,34.36
2023-12-27T16:55:49.092Z,34.39
2023-12-27T16:58:15.418Z,33.62
2023-12-27T17:00:41.986Z,34.63
2023-12-27T17:03:08.481Z,36.37
2023-12-27T17:05:34.845Z,34.53
2023-12-27T17:08:01.137Z,34.20
2023-12-27T17:10:27.444Z,33.32
2023-12-27T17:12:53.820Z,33.34
2023-12-27T17:15:20.117Z,32.96
2023-12-27T17:17:46.456Z,32.70
2023-12-27T17:20:12.790Z,31.93
2023-12-27T17:22:39.084Z,31.31
2023-12-27T17:25:05.391Z,31.16
2023-12-27T17:27:31.791Z,33.34
2023-12-27T17:29:58.142Z,32.21
2023-12-27T17:32:24.551Z,32.24
2023-12-27T17:34:50.992Z,30.97
2023-12-27T17:37:17.369Z,31.46
2023-12-27T17:39:43.704Z,30.76
2023-12-27T17:42:10.060Z,30.97
2023-12-27T17:44:36.422Z,31.21
2023-12-27T17:47:02.710Z,31.11
2023-12-27T17:49:29.121Z,32.22
2023-12-27T17:51:55.463Z,31.32
2023-12-27T17:54:21.773Z,31.39
2023-12-27T17:56:48.076Z,31.68
2023-12-27T17:59:14.380Z,31.24
2023-12-27T18:01:40.676Z,33.84
2023-12-27T18:04:07.039Z,33.61
2023-12-27T18:06:33.409Z,33.79
2023-12-27T18:08:59.720Z,34.83
2023-12-27T18:11:25.995Z,34.14
2023-12-27T18:13:52.314Z,33.44
2023-12-27T18:16:18.645Z,33.00
2023-12-27T18:18:45.089Z,32.29
2023-12-27T18:21:11.476Z,32.34
2023-12-27T18:23:37.781Z,33.34
2023-12-27T18:26:04.058Z,33.32
2023-12-27T18:28:30.338Z,34.62
2023-12-27T18:30:56.681Z,33.50
2023-12-27T18:33:23.112Z,31.65
2023-12-27T18:35:49.670Z,32.46
2023-12-27T18:38:15.946Z,32.54
2023-12-27T18:40:42.224Z,32.93
2023-12-27T18:43:08.612Z,31.65
2023-12-27T18:45:35.079Z,32.65
2023-12-27T18:48:01.543Z,33.09
2023-12-27T18:50:28.108Z,32.26
2023-12-27T18:52:54.585Z,32.94
2023-12-27T18:55:21.019Z,34.09
2023-12-27T18:57:47.384Z,33.45
2023-12-27T19:00:13.710Z,32.91
2023-12-27T19:02:40.050Z,34.59
2023-12-27T19:05:06.411Z,34.45
2023-12-27T19:07:32.707Z,34.88
2023-12-27T19:09:58.979Z,34.75
2023-12-27T19:12:25.450Z,34.27
2023-12-27T19:14:51.762Z,34.29
2023-12-27T19:17:18.039Z,32.58
2023-12-27T19:19:44.480Z,33.85
2023-12-27T19:22:10.804Z,34.60
2023-12-27T19:24:37.105Z,31.42
2023-12-27T19:27:03.410Z,32.60
2023-12-27T19:29:29.696Z,32.25
2023-12-27T19:31:55.981Z,32.29
2023-12-27T19:34:22.356Z,31.77
2023-12-27T19:36:48.831Z,32.27
2023-12-27T19:39:15.226Z,32.88
2023-12-27T19:41:41.529Z,32.07
2023-12-27T19:44:07.872Z,31.80
2023-12-27T19:46:34.154Z,30.49
2023-12-27T19:49:00.569Z,32.88
2023-12-27T19:51:26.957Z,34.19
2023-12-27T19:53:53.274Z,35.80
2023-12-27T19:56:19.553Z,35.35
2023-12-27T19:58:45.846Z,32.96
2023-12-27T20:01:12.197Z,33.10
2023-12-27T20:03:38.571Z,33.31
2023-12-27T20:06:04.940Z,34.84
2023-12-27T20:08:31.315Z,35.91
2023-12-27T20:10:57.595Z,35.32
2023-12-27T20:13:23.884Z,34.46
2023-12-27T20:15:50.209Z,33.51
2023-12-27T20:18:16.686Z,34.07
2023-12-27T20:20:43.225Z,35.11
2023-12-27T20:23:09.515Z,34.76
2023-12-27T20:25:35.790Z,34.04
2023-12-27T20:28:02.461Z,35.14
2023-12-27T20:30:29.253Z,35.23
2023-12-27T20:32:55.820Z,34.89
2023-12-27T20:35:22.199Z,35.13
2023-12-27T20:37:48.473Z,34.95
2023-12-27T20:40:14.756Z,34.47
2023-12-27T20:42:41.158Z,34.40
2023-12-27T20:45:07.512Z,33.46
2023-12-27T20:47:33.996Z,34.27
2023-12-27T20:50:00.459Z,35.82
2023-12-27T20:52:26.814Z,35.00
2023-12-27T20:54:53.148Z,35.68
2023-12-27T20:57:19.535Z,35.71
2023-12-27T20:59:45.844Z,33.41
2023-12-27T21:02:12.213Z,33.94
2023-12-27T21:04:38.656Z,34.26
2023-12-27T21:07:05.048Z,34.66
2023-12-27T21:09:31.406Z,33.52
2023-12-27T21:11:57.709Z,32.09
2023-12-27T21:14:23.997Z,33.00
2023-12-27T21:16:50.290Z,34.64
2023-12-27T21:19:16.677Z,35.37
2023-12-27T21:21:43.050Z,35.85
2023-12-27T21:24:09.436Z,33.83
2023-12-27T21:26:35.828Z,32.31
2023-12-27T21:29:02.116Z,32.59
2023-12-27T21:31:28.520Z,33.74
2023-12-27T21:33:55.146Z,33.53
2023-12-27T21:36:21.766Z,33.96
2023-12-27T21:38:48.064Z,33.55
2023-12-27T21:41:14.349Z,35.61
2023-12-27T21:43:40.645Z,36.51
2023-12-27T21:46:06.935Z,36.37
2023-12-27T21:48:33.328Z,36.63
2023-12-27T21:50:59.680Z,36.82
2023-12-27T21:53:26.029Z,33.61
2023-12-27T21:55:52.341Z,33.36
2023-12-27T21:58:18.630Z,34.45
2023-12-27T22:00:44.925Z,34.92
2023-12-27T22:03:11.272Z,35.40
2023-12-27T22:05:37.698Z,36.66
2023-12-27T22:08:07.861Z,37.66
2023-12-27T22:10:37.015Z,38.43
2023-12-27T22:13:03.304Z,37.93
2023-12-27T22:15:29.644Z,37.68
2023-12-27T22:17:56.092Z,37.75
2023-12-27T22:20:22.515Z,37.74
2023-12-27T22:22:48.788Z,36.93
2023-12-27T22:25:15.081Z,35.20
2023-12-27T22:27:41.390Z,34.94
2023-12-27T22:30:07.740Z,33.80
2023-12-27T22:32:34.127Z,34.51
2023-12-27T22:35:00.429Z,34.69
2023-12-27T22:37:26.697Z,35.80
2023-12-27T22:39:52.996Z,34.59
2023-12-27T22:42:19.385Z,35.50
2023-12-27T22:44:45.670Z,35.24
2023-12-27T22:47:11.958Z,36.72
2023-12-27T22:49:38.419Z,36.40
2023-12-27T22:52:04.746Z,37.53
2023-12-27T22:54:31.068Z,37.32
2023-12-27T22:56:57.386Z,35.81
2023-12-27T22:59:23.677Z,34.71
2023-12-27T23:01:49.954Z,35.54
2023-12-27T23:04:16.351Z,37.09
2023-12-27T23:06:42.711Z,37.82
2023-12-27T23:09:09.082Z,37.42
2023-12-27T23:11:35.415Z,37.39
2023-12-27T23:14:01.729Z,37.24
2023-12-27T23:16:28.014Z,37.52
2023-12-27T23:18:54.407Z,37.48
2023-12-27T23:21:20.792Z,37.32
2023-12-27T23:23:47.097Z,36.92
2023-12-27T23:26:13.387Z,37.27
2023-12-27T23:28:39.688Z,37.62
2023-12-27T23:31:06.074Z,38.59
2023-12-27T23:33:32.497Z,37.90
2023-12-27T23:35:58.898Z,35.93
2023-12-27T23:38:25.240Z,34.66
2023-12-27T23:40:51.594Z,35.52
2023-12-27T23:43:17.883Z,34.67
2023-12-27T23:45:44.274Z,36.46
2023-12-27T23:48:10.901Z,36.11
2023-12-27T23:50:37.285Z,35.60
2023-12-27T23:53:03.561Z,36.23
2023-12-27T23:55:29.933Z,35.79
2023-12-27T23:57:56.412Z,35.95
